Arcadia, Texas
Current Conditions -  °F | °C
As of 8:53 AM on Wednesday 22 Oct 2014 (Local Time) from KLVJ Reporting Station
Haze Haze  
Wind Chill: 70°   Ceiling: Unl
Heat Index: 70°   Visibility: 6mi
Dew Point: 65°   Wind: 7mph
Humidity: 84%   Direction: 60°ENE
Pressure: 30.09"   Gusts: NA
Location:  29.3723°N, 95.1328°W
Report Text: KLVJ 221353Z AUTO 06006KT 6SM HZ CLR 21/18 A3009 RMK AO2 SLP189 T02110183
Loading
Personal Weather Stations






























Interactive Weather Map
Tropical Storm Tracking
New forecast layout! Learn more

10-Day Weather Forecast

Advertisements
Track Severe Weather on mobile